createdAt,value
2023-07-05T00:01:29.577Z,12.66
2023-07-05T00:03:56.933Z,12.62
2023-07-05T00:06:24.340Z,12.51
2023-07-05T00:08:52.388Z,12.52
2023-07-05T00:11:20.876Z,12.57
2023-07-05T00:13:47.878Z,12.36
2023-07-05T00:16:14.893Z,12.83
2023-07-05T00:18:42.302Z,12.81
2023-07-05T00:21:13.650Z,12.83
2023-07-05T00:23:45.409Z,12.66
2023-07-05T00:26:12.430Z,12.60
2023-07-05T00:28:39.501Z,12.50
2023-07-05T00:31:07.305Z,12.64
2023-07-05T00:33:34.367Z,12.80
2023-07-05T00:36:01.395Z,12.89
2023-07-05T00:38:28.403Z,12.65
2023-07-05T00:40:55.348Z,12.61
2023-07-05T00:43:22.333Z,12.54
2023-07-05T00:45:55.825Z,12.54
2023-07-05T00:48:45.105Z,12.67
2023-07-05T00:51:22.085Z,12.48
2023-07-05T00:53:49.148Z,12.57
2023-07-05T00:56:24.116Z,12.57
2023-07-05T00:58:55.340Z,12.02
2023-07-05T01:01:26.246Z,12.19
2023-07-05T01:03:55.769Z,12.14
2023-07-05T01:06:25.398Z,12.16
2023-07-05T01:08:53.231Z,12.20
2023-07-05T01:11:20.096Z,12.01
2023-07-05T01:13:58.288Z,12.21
2023-07-05T01:16:59.431Z,12.36
2023-07-05T01:19:47.391Z,12.23
2023-07-05T01:22:38.486Z,12.31
2023-07-05T01:25:08.568Z,12.20
2023-07-05T01:27:58.053Z,12.28
2023-07-05T01:30:43.731Z,12.34
2023-07-05T01:33:18.903Z,12.18
2023-07-05T01:35:52.784Z,12.16
2023-07-05T01:38:20.191Z,12.33
2023-07-05T01:40:51.435Z,12.46
2023-07-05T01:43:18.887Z,12.47
2023-07-05T01:46:00.549Z,12.52
2023-07-05T01:48:49.483Z,12.56
2023-07-05T01:51:40.802Z,12.62
2023-07-05T01:54:24.827Z,12.61
2023-07-05T01:57:01.618Z,12.57
2023-07-05T01:59:34.721Z,12.48
2023-07-05T02:02:04.530Z,12.41
2023-07-05T02:04:36.960Z,12.34
2023-07-05T02:07:10.140Z,12.31
2023-07-05T02:09:40.859Z,12.39
2023-07-05T02:12:10.498Z,12.37
2023-07-05T02:14:39.070Z,12.43
2023-07-05T02:17:05.964Z,12.54
2023-07-05T02:19:32.947Z,12.64
2023-07-05T02:22:00.133Z,12.63
2023-07-05T02:24:27.142Z,12.56
2023-07-05T02:26:56.977Z,12.62
2023-07-05T02:29:24.338Z,12.61
2023-07-05T02:31:51.233Z,12.84
2023-07-05T02:34:18.945Z,12.77
2023-07-05T02:36:45.851Z,12.68
2023-07-05T02:39:13.177Z,12.57
2023-07-05T02:41:40.989Z,12.69
2023-07-05T02:44:08.019Z,12.71
2023-07-05T02:46:34.989Z,12.75
2023-07-05T02:49:01.953Z,12.73
2023-07-05T02:51:28.979Z,12.78
2023-07-05T02:53:56.684Z,12.85
2023-07-05T02:56:23.545Z,12.96
2023-07-05T02:58:50.731Z,12.97
2023-07-05T03:01:18.003Z,13.12
2023-07-05T03:03:45.227Z,13.04
2023-07-05T03:06:12.090Z,13.16
2023-07-05T03:08:38.996Z,13.22
2023-07-05T03:11:05.938Z,13.23
2023-07-05T03:13:34.886Z,13.34
2023-07-05T03:16:02.908Z,13.29
2023-07-05T03:18:30.523Z,13.16
2023-07-05T03:20:57.561Z,13.03
2023-07-05T03:23:24.904Z,13.09
2023-07-05T03:25:59.845Z,13.00
2023-07-05T03:28:30.395Z,12.92
2023-07-05T03:31:05.249Z,12.95
2023-07-05T03:33:33.697Z,12.94
2023-07-05T03:36:02.874Z,12.99
2023-07-05T03:38:30.707Z,12.88
2023-07-05T03:41:05.728Z,12.94
2023-07-05T03:43:36.892Z,12.86
2023-07-05T03:46:06.557Z,12.64
2023-07-05T03:48:39.200Z,12.73
2023-07-05T03:51:07.935Z,12.69
2023-07-05T03:53:35.152Z,12.75
2023-07-05T03:56:04.255Z,12.78
2023-07-05T03:58:31.978Z,12.51
2023-07-05T04:01:19.262Z,12.69
2023-07-05T04:03:48.907Z,12.66
2023-07-05T04:06:17.462Z,12.61
2023-07-05T04:08:45.024Z,12.58
2023-07-05T04:11:12.203Z,12.64
2023-07-05T04:13:40.009Z,12.65
2023-07-05T04:16:12.813Z,12.69
2023-07-05T04:18:41.091Z,12.72
2023-07-05T04:21:08.767Z,12.72
2023-07-05T04:23:36.257Z,12.75
2023-07-05T04:26:07.579Z,12.70
2023-07-05T04:28:36.250Z,12.59
2023-07-05T04:31:04.238Z,12.51
2023-07-05T04:33:31.115Z,12.60
2023-07-05T04:36:01.043Z,12.62
2023-07-05T04:38:28.847Z,12.60
2023-07-05T04:40:58.373Z,12.63
2023-07-05T04:43:26.829Z,12.67
2023-07-05T04:45:58.674Z,12.68
2023-07-05T04:48:30.058Z,12.67
2023-07-05T04:50:59.212Z,12.70
2023-07-05T04:53:28.877Z,12.54
2023-07-05T04:55:58.653Z,12.73
2023-07-05T04:58:26.773Z,12.77
2023-07-05T05:00:54.493Z,12.81
2023-07-05T05:03:23.954Z,12.79
2023-07-05T05:05:55.026Z,12.76
2023-07-05T05:08:23.694Z,12.71
2023-07-05T05:10:56.261Z,12.75
2023-07-05T05:13:24.177Z,12.82
2023-07-05T05:15:52.415Z,12.80
2023-07-05T05:18:19.886Z,12.80
2023-07-05T05:20:47.538Z,12.75
2023-07-05T05:23:14.562Z,12.86
2023-07-05T05:25:45.992Z,12.97
2023-07-05T05:28:14.140Z,13.02
2023-07-05T05:30:45.513Z,12.99
2023-07-05T05:33:14.952Z,12.97
2023-07-05T05:35:50.994Z,12.96
2023-07-05T05:38:19.865Z,12.93
2023-07-05T05:40:50.018Z,12.97
2023-07-05T05:43:17.772Z,13.04
2023-07-05T05:45:44.736Z,13.06
2023-07-05T05:48:11.965Z,13.00
2023-07-05T05:50:38.880Z,13.07
2023-07-05T05:53:06.020Z,13.07
2023-07-05T05:55:33.114Z,13.21
2023-07-05T05:58:00.102Z,13.34
2023-07-05T06:00:27.105Z,13.39
2023-07-05T06:02:54.810Z,13.44
2023-07-05T06:05:21.849Z,13.44
2023-07-05T06:07:48.817Z,13.37
2023-07-05T06:10:15.900Z,13.32
2023-07-05T06:12:44.173Z,13.36
2023-07-05T06:15:13.972Z,13.39
2023-07-05T06:17:41.449Z,13.30
2023-07-05T06:20:12.315Z,13.20
2023-07-05T06:22:40.147Z,13.20
2023-07-05T06:25:08.274Z,13.13
2023-07-05T06:27:35.673Z,13.20
2023-07-05T06:30:03.181Z,13.10
2023-07-05T06:32:30.491Z,13.07
2023-07-05T06:34:57.976Z,13.07
2023-07-05T06:37:25.145Z,13.09
2023-07-05T06:39:52.159Z,13.08
2023-07-05T06:42:19.194Z,13.04
2023-07-05T06:44:46.024Z,13.09
2023-07-05T06:47:13.398Z,13.14
2023-07-05T06:49:44.041Z,13.25
2023-07-05T06:52:11.212Z,13.17
2023-07-05T06:54:38.254Z,13.22
2023-07-05T06:57:06.024Z,13.28
2023-07-05T06:59:34.185Z,13.31
2023-07-05T07:02:01.224Z,13.30
2023-07-05T07:04:28.822Z,13.27
2023-07-05T07:06:55.824Z,13.28
2023-07-05T07:09:22.705Z,13.26
2023-07-05T07:11:49.432Z,13.29
2023-07-05T07:14:16.263Z,13.32
2023-07-05T07:16:43.461Z,13.32
2023-07-05T07:19:10.502Z,13.46
2023-07-05T07:21:38.641Z,13.57
2023-07-05T07:24:06.356Z,13.74
2023-07-05T07:26:33.290Z,13.79
2023-07-05T07:29:00.174Z,13.83
2023-07-05T07:31:32.492Z,14.07
2023-07-05T07:34:06.884Z,14.22
2023-07-05T07:36:35.554Z,14.30
2023-07-05T07:39:02.869Z,14.41
2023-07-05T07:41:35.200Z,14.38
2023-07-05T07:44:05.643Z,14.77
2023-07-05T07:46:34.126Z,15.34
2023-07-05T07:49:02.994Z,15.69
2023-07-05T07:51:39.140Z,15.62
2023-07-05T07:54:17.658Z,16.05
2023-07-05T07:56:46.525Z,16.18
2023-07-05T07:59:14.649Z,16.14
2023-07-05T08:01:43.081Z,16.09
2023-07-05T08:04:12.584Z,15.95
2023-07-05T08:06:45.850Z,16.19
2023-07-05T08:09:22.545Z,16.32
2023-07-05T08:11:49.805Z,16.58
2023-07-05T08:14:19.486Z,16.73
2023-07-05T08:16:47.668Z,16.45
2023-07-05T08:19:16.408Z,16.19
2023-07-05T08:21:45.358Z,16.01
2023-07-05T08:24:25.857Z,16.43
2023-07-05T08:26:53.331Z,17.17
2023-07-05T08:29:20.522Z,17.74
2023-07-05T08:31:49.646Z,18.50
2023-07-05T08:34:17.002Z,18.14
2023-07-05T08:36:47.484Z,21.41
2023-07-05T08:39:15.609Z,26.16
2023-07-05T08:41:45.676Z,24.74
2023-07-05T08:44:40.842Z,27.88
2023-07-05T08:47:23.346Z,29.05
2023-07-05T08:50:08.507Z,26.37
2023-07-05T08:52:44.896Z,26.98
2023-07-05T08:55:22.541Z,28.43
2023-07-05T08:57:55.662Z,30.66
2023-07-05T09:00:29.831Z,31.79
2023-07-05T09:02:57.320Z,31.26
2023-07-05T09:05:40.870Z,32.73
2023-07-05T09:08:30.907Z,31.38
2023-07-05T09:11:13.274Z,31.88
2023-07-05T09:13:43.881Z,30.43
2023-07-05T09:16:16.836Z,25.77
2023-07-05T09:19:06.542Z,22.64
2023-07-05T09:21:48.318Z,21.18
2023-07-05T09:24:21.643Z,19.50
2023-07-05T09:27:12.361Z,24.93
2023-07-05T09:30:10.844Z,31.05
2023-07-05T09:32:44.288Z,31.45
2023-07-05T09:35:19.824Z,30.98
2023-07-05T09:38:03.041Z,29.39
2023-07-05T09:40:39.682Z,31.97
2023-07-05T09:43:13.649Z,32.20
2023-07-05T09:45:40.968Z,34.55
2023-07-05T09:48:12.769Z,34.26
2023-07-05T09:50:46.809Z,33.53
2023-07-05T09:53:39.658Z,27.89
2023-07-05T09:56:11.219Z,26.50
2023-07-05T09:58:40.122Z,30.38
2023-07-05T10:01:16.892Z,29.91
2023-07-05T10:03:56.657Z,32.79
2023-07-05T10:06:28.679Z,31.99
2023-07-05T10:09:00.685Z,33.05
2023-07-05T10:11:35.031Z,32.57
2023-07-05T10:14:14.118Z,30.56
2023-07-05T10:16:47.280Z,27.45
2023-07-05T10:19:21.174Z,25.50
2023-07-05T10:21:49.917Z,23.41
2023-07-05T10:24:21.808Z,22.42
2023-07-05T10:27:04.344Z,21.29
2023-07-05T10:29:32.628Z,20.88
2023-07-05T10:32:01.254Z,19.65
2023-07-05T10:34:28.991Z,19.45
2023-07-05T10:36:56.378Z,21.26
2023-07-05T10:39:27.689Z,27.69
2023-07-05T10:42:00.464Z,25.27
2023-07-05T10:44:36.109Z,25.71
2023-07-05T10:47:06.577Z,23.75
2023-07-05T10:49:35.853Z,23.65
2023-07-05T10:52:11.084Z,22.34
2023-07-05T10:54:50.579Z,21.83
2023-07-05T10:57:24.988Z,20.89
2023-07-05T10:59:59.674Z,19.69
2023-07-05T11:02:51.387Z,19.30
2023-07-05T11:05:28.996Z,20.38
2023-07-05T11:08:01.267Z,24.07
2023-07-05T11:10:30.718Z,28.60
2023-07-05T11:12:58.265Z,31.48
2023-07-05T11:15:25.782Z,31.26
2023-07-05T11:17:53.007Z,33.83
2023-07-05T11:20:41.045Z,30.26
2023-07-05T11:23:13.011Z,29.29
2023-07-05T11:26:02.057Z,29.12
2023-07-05T11:28:40.694Z,25.38
2023-07-05T11:31:09.496Z,23.12
2023-07-05T11:33:36.804Z,22.28
2023-07-05T11:36:30.437Z,20.38
2023-07-05T11:39:01.446Z,19.26
2023-07-05T11:41:31.357Z,19.01
2023-07-05T11:44:23.665Z,18.57
2023-07-05T11:46:50.894Z,18.68
2023-07-05T11:49:30.462Z,18.53
2023-07-05T11:52:21.344Z,18.76
2023-07-05T11:55:10.154Z,18.83
2023-07-05T11:57:43.141Z,18.68
2023-07-05T12:00:20.206Z,18.77
2023-07-05T12:02:47.889Z,18.71
2023-07-05T12:05:21.260Z,18.20
2023-07-05T12:07:56.725Z,18.11
2023-07-05T12:10:28.376Z,18.01
2023-07-05T12:12:55.307Z,17.98
2023-07-05T12:15:22.592Z,17.56
2023-07-05T12:17:49.716Z,17.45
2023-07-05T12:20:41.040Z,17.38
2023-07-05T12:23:15.179Z,17.17
2023-07-05T12:25:47.123Z,17.16
2023-07-05T12:28:25.636Z,17.53
2023-07-05T12:31:04.731Z,17.90
2023-07-05T12:33:38.236Z,17.50
2023-07-05T12:36:05.264Z,17.54
2023-07-05T12:38:35.106Z,17.51
2023-07-05T12:41:03.414Z,17.25
2023-07-05T12:43:32.495Z,17.54
2023-07-05T12:46:14.236Z,18.69
2023-07-05T12:48:42.495Z,19.74
2023-07-05T12:51:21.620Z,19.94
2023-07-05T12:53:52.596Z,19.65
2023-07-05T12:56:23.894Z,19.36
2023-07-05T12:58:59.164Z,18.93
2023-07-05T13:01:32.773Z,18.51
2023-07-05T13:04:14.226Z,17.61
2023-07-05T13:06:42.094Z,17.67
2023-07-05T13:09:09.299Z,17.54
2023-07-05T13:11:37.674Z,17.38
2023-07-05T13:14:11.434Z,17.14
2023-07-05T13:16:52.419Z,17.20
2023-07-05T13:19:19.464Z,17.50
2023-07-05T13:21:49.140Z,17.53
2023-07-05T13:24:28.218Z,17.20
2023-07-05T13:26:58.425Z,17.03
2023-07-05T13:29:34.494Z,16.99
2023-07-05T13:32:01.651Z,17.10
2023-07-05T13:34:28.908Z,16.82
2023-07-05T13:37:06.664Z,16.83
2023-07-05T13:39:34.237Z,16.99
2023-07-05T13:42:03.581Z,17.04
2023-07-05T13:44:31.342Z,17.40
2023-07-05T13:46:59.496Z,17.33
2023-07-05T13:49:28.270Z,17.48
2023-07-05T13:52:00.979Z,17.14
2023-07-05T13:54:28.447Z,17.23
2023-07-05T13:56:57.900Z,16.98
2023-07-05T13:59:25.393Z,17.19
2023-07-05T14:01:52.475Z,17.43
2023-07-05T14:04:19.891Z,17.49
2023-07-05T14:06:47.092Z,17.41
2023-07-05T14:09:14.547Z,17.06
2023-07-05T14:11:43.131Z,17.06
2023-07-05T14:14:13.643Z,16.71
2023-07-05T14:16:40.899Z,16.33
2023-07-05T14:19:08.254Z,16.43
2023-07-05T14:21:39.340Z,16.26
2023-07-05T14:24:11.229Z,15.74
2023-07-05T14:26:38.375Z,15.65
2023-07-05T14:29:05.865Z,15.80
2023-07-05T14:31:33.415Z,15.76
2023-07-05T14:34:01.068Z,15.81
2023-07-05T14:36:28.653Z,16.07
2023-07-05T14:38:55.776Z,16.12
2023-07-05T14:41:25.904Z,16.08
2023-07-05T14:43:54.072Z,15.81
2023-07-05T14:46:21.552Z,16.04
2023-07-05T14:48:49.853Z,16.15
2023-07-05T14:51:26.019Z,16.48
2023-07-05T14:53:53.959Z,16.51
2023-07-05T14:56:20.853Z,16.76
2023-07-05T14:58:47.808Z,16.72
2023-07-05T15:01:18.431Z,16.56
2023-07-05T15:03:50.543Z,16.42
2023-07-05T15:06:20.606Z,16.34
2023-07-05T15:08:48.156Z,16.35
2023-07-05T15:11:15.313Z,16.46
2023-07-05T15:13:45.565Z,17.11
2023-07-05T15:16:18.158Z,17.44
2023-07-05T15:18:45.142Z,17.63
2023-07-05T15:21:20.675Z,17.63
2023-07-05T15:23:53.116Z,17.42
2023-07-05T15:26:21.613Z,17.30
2023-07-05T15:28:49.111Z,17.15
2023-07-05T15:31:17.361Z,17.12
2023-07-05T15:33:44.438Z,17.05
2023-07-05T15:36:19.634Z,16.91
2023-07-05T15:38:47.526Z,16.67
2023-07-05T15:41:14.749Z,16.40
2023-07-05T15:43:41.862Z,16.45
2023-07-05T15:46:11.307Z,16.23
2023-07-05T15:48:40.313Z,16.26
2023-07-05T15:51:09.644Z,16.05
2023-07-05T15:53:36.574Z,15.54
2023-07-05T15:56:04.327Z,15.18
2023-07-05T15:58:31.860Z,14.55
2023-07-05T16:01:02.728Z,13.96
2023-07-05T16:03:30.703Z,13.64
2023-07-05T16:05:57.658Z,13.33
2023-07-05T16:08:25.911Z,13.46
2023-07-05T16:10:55.493Z,13.33
2023-07-05T16:13:22.838Z,13.36
2023-07-05T16:16:00.959Z,13.26
2023-07-05T16:18:28.107Z,13.10
2023-07-05T16:21:00.161Z,13.37
2023-07-05T16:23:28.368Z,13.46
2023-07-05T16:25:57.845Z,13.51
2023-07-05T16:28:24.935Z,13.44
2023-07-05T16:30:52.298Z,13.36
2023-07-05T16:33:19.867Z,13.26
2023-07-05T16:35:56.108Z,13.34
2023-07-05T16:38:24.447Z,13.55
2023-07-05T16:40:55.987Z,13.51
2023-07-05T16:43:26.118Z,13.53
2023-07-05T16:45:56.088Z,13.21
2023-07-05T16:48:22.948Z,13.25
2023-07-05T16:50:51.669Z,13.27
2023-07-05T16:53:20.192Z,13.44
2023-07-05T16:55:59.022Z,13.56
2023-07-05T16:58:27.211Z,13.44
2023-07-05T17:01:14.557Z,13.57
2023-07-05T17:03:42.341Z,13.89
2023-07-05T17:06:11.450Z,14.17
2023-07-05T17:08:40.083Z,14.41
2023-07-05T17:11:09.584Z,14.73
2023-07-05T17:13:37.474Z,14.94
2023-07-05T17:16:05.277Z,15.15
2023-07-05T17:18:34.194Z,15.23
2023-07-05T17:21:05.440Z,15.27
2023-07-05T17:23:32.935Z,14.88
2023-07-05T17:26:05.616Z,14.90
2023-07-05T17:28:32.594Z,14.63
2023-07-05T17:31:07.698Z,14.36
2023-07-05T17:33:36.021Z,14.31
2023-07-05T17:36:05.013Z,14.22
2023-07-05T17:38:33.115Z,14.09
2023-07-05T17:41:00.116Z,14.09
2023-07-05T17:43:27.667Z,14.24
2023-07-05T17:46:17.013Z,14.39
2023-07-05T17:48:43.930Z,14.54
2023-07-05T17:51:11.043Z,14.69
2023-07-05T17:53:41.036Z,14.64
2023-07-05T17:56:09.958Z,14.74
2023-07-05T17:58:37.057Z,14.76
2023-07-05T18:01:12.121Z,14.76
2023-07-05T18:03:40.185Z,14.63
2023-07-05T18:06:07.922Z,14.57
2023-07-05T18:08:34.938Z,14.57
2023-07-05T18:11:05.250Z,14.56
2023-07-05T18:13:34.984Z,14.61
2023-07-05T18:16:04.211Z,14.74
2023-07-05T18:18:32.869Z,14.87
2023-07-05T18:21:01.391Z,14.93
2023-07-05T18:23:29.990Z,14.83
2023-07-05T18:25:59.191Z,14.93
2023-07-05T18:28:27.288Z,14.86
2023-07-05T18:31:02.715Z,14.80
2023-07-05T18:33:32.011Z,14.81
2023-07-05T18:35:59.698Z,14.87
2023-07-05T18:38:29.173Z,14.83
2023-07-05T18:41:15.658Z,14.79
2023-07-05T18:43:42.730Z,14.87
2023-07-05T18:46:10.772Z,14.87
2023-07-05T18:48:38.428Z,14.88
2023-07-05T18:51:05.999Z,14.91
2023-07-05T18:53:33.543Z,14.90
2023-07-05T18:56:06.042Z,14.87
2023-07-05T18:58:36.019Z,14.86
2023-07-05T19:01:13.786Z,14.76
2023-07-05T19:03:42.805Z,14.70
2023-07-05T19:06:17.623Z,14.75
2023-07-05T19:08:45.202Z,14.69
2023-07-05T19:11:16.045Z,14.61
2023-07-05T19:13:44.348Z,14.61
2023-07-05T19:16:13.620Z,14.61
2023-07-05T19:18:40.842Z,14.63
2023-07-05T19:21:08.608Z,14.56
2023-07-05T19:23:37.680Z,14.56
2023-07-05T19:26:08.440Z,14.57
2023-07-05T19:28:42.596Z,14.50
2023-07-05T19:31:15.933Z,14.47
2023-07-05T19:33:45.400Z,14.33
2023-07-05T19:36:12.558Z,13.91
2023-07-05T19:38:39.358Z,13.68
2023-07-05T19:41:06.849Z,13.45
2023-07-05T19:43:34.277Z,13.43
2023-07-05T19:46:05.767Z,13.32
2023-07-05T19:48:33.748Z,13.26
2023-07-05T19:51:06.058Z,13.35
2023-07-05T19:53:33.047Z,13.35
2023-07-05T19:55:59.956Z,13.33
2023-07-05T19:58:26.998Z,13.30
2023-07-05T20:00:55.048Z,13.27
2023-07-05T20:03:22.216Z,13.34
2023-07-05T20:05:50.116Z,13.60
2023-07-05T20:11:08.410Z,13.62
2023-07-05T20:13:35.808Z,13.65
2023-07-05T20:16:03.089Z,13.69
2023-07-05T20:18:30.144Z,13.74
2023-07-05T20:21:08.370Z,13.87
2023-07-05T20:23:38.362Z,13.60
2023-07-05T20:26:05.573Z,13.54
2023-07-05T20:28:32.470Z,13.47
2023-07-05T20:30:59.691Z,13.35
2023-07-05T20:33:27.942Z,13.10
2023-07-05T20:36:03.188Z,13.25
2023-07-05T20:38:32.214Z,13.19
2023-07-05T20:40:59.636Z,13.18
2023-07-05T20:43:27.063Z,13.02
2023-07-05T20:46:05.353Z,13.14
2023-07-05T20:48:32.419Z,13.20
2023-07-05T20:51:10.705Z,12.95
2023-07-05T20:53:39.847Z,13.22
2023-07-05T20:56:07.130Z,13.18
2023-07-05T20:58:37.314Z,13.13
2023-07-05T21:01:06.687Z,13.06
2023-07-05T21:03:34.420Z,13.01
2023-07-05T21:06:02.516Z,13.11
2023-07-05T21:08:34.567Z,13.14
2023-07-05T21:11:05.249Z,12.83
2023-07-05T21:13:32.882Z,13.41
2023-07-05T21:16:04.965Z,13.34
2023-07-05T21:18:32.811Z,13.27
2023-07-05T21:21:01.754Z,13.45
2023-07-05T21:23:30.191Z,13.33
2023-07-05T21:26:02.334Z,13.38
2023-07-05T21:28:29.606Z,13.38
2023-07-05T21:30:59.488Z,13.36
2023-07-05T21:33:28.056Z,13.38
2023-07-05T21:35:58.690Z,13.64
2023-07-05T21:38:28.120Z,13.68
2023-07-05T21:41:00.774Z,13.61
2023-07-05T21:43:30.622Z,13.40
2023-07-05T21:45:58.041Z,13.18
2023-07-05T21:48:30.343Z,13.10
2023-07-05T21:50:58.875Z,12.97
2023-07-05T21:53:25.975Z,13.01
2023-07-05T21:56:03.305Z,13.00
2023-07-05T21:58:32.186Z,12.79
2023-07-05T22:01:03.299Z,12.91
2023-07-05T22:03:31.177Z,12.94
2023-07-05T22:05:59.993Z,12.92
2023-07-05T22:08:29.524Z,12.88
2023-07-05T22:10:56.861Z,12.96
2023-07-05T22:13:24.122Z,12.90
2023-07-05T22:15:52.399Z,12.79
2023-07-05T22:18:19.691Z,12.77
2023-07-05T22:20:50.059Z,12.68
2023-07-05T22:23:17.343Z,12.56
2023-07-05T22:25:45.274Z,12.72
2023-07-05T22:28:12.337Z,12.75
2023-07-05T22:30:39.467Z,12.73
2023-07-05T22:33:06.658Z,12.69
2023-07-05T22:35:38.539Z,12.69
2023-07-05T22:38:07.281Z,12.78
2023-07-05T22:40:34.866Z,12.83
2023-07-05T22:43:02.097Z,12.85
2023-07-05T22:45:34.872Z,12.71
2023-07-05T22:48:02.370Z,12.59
2023-07-05T22:50:29.980Z,12.53
2023-07-05T22:52:58.996Z,12.54
2023-07-05T22:55:25.766Z,12.58
2023-07-05T22:57:55.915Z,12.61
2023-07-05T23:00:25.969Z,12.69
2023-07-05T23:02:56.719Z,12.71
2023-07-05T23:05:27.831Z,12.64
2023-07-05T23:07:54.889Z,13.03
2023-07-05T23:10:22.162Z,13.10
2023-07-05T23:12:49.003Z,13.27
2023-07-05T23:15:16.203Z,13.29
2023-07-05T23:17:43.689Z,13.20
2023-07-05T23:20:13.304Z,13.20
2023-07-05T23:22:43.253Z,12.90
2023-07-05T23:25:11.222Z,12.76
2023-07-05T23:27:41.703Z,12.72
2023-07-05T23:30:11.045Z,12.80
2023-07-05T23:32:39.758Z,12.68
2023-07-05T23:35:07.296Z,12.74
2023-07-05T23:37:34.280Z,12.72
2023-07-05T23:40:01.145Z,12.67
2023-07-05T23:42:30.500Z,12.67
2023-07-05T23:44:58.024Z,12.63
2023-07-05T23:47:24.887Z,12.58
2023-07-05T23:49:53.086Z,12.58
2023-07-05T23:52:22.836Z,12.64
2023-07-05T23:54:49.788Z,12.66
2023-07-05T23:57:18.998Z,12.75
2023-07-05T23:59:45.858Z,12.72
